Terminal Aerodrome Forecast
Issued by NWS

Home | Current Version | Previous Version | Text Only | Print | Product List | Glossary On
Versions: 1 2 3 4 5 6 7 8 9 10 11 12 13 14 15
423
FTUS44 KCRP 200526
TAFLRD
TAF
KLRD 200526Z 2006/2106 10007KT P6SM FEW015
     FM201100 11005KT P6SM BKN015
      TEMPO 2012/2014 6SM BR BKN009
     FM201500 15007KT P6SM BKN025
     FM201700 15010KT P6SM SCT040=

USA.gov is the U.S. government's official web portal to all federal, state and local government web resources and services.